sensor_id;sensor_type;location;lat;lon;timestamp;P1;durP1;ratioP1;P2;durP2;ratioP2
10509;SDS011;5303;53.266;10.410;2023-04-23T00:00:44;4.20;;;3.67;;
10509;SDS011;5303;53.266;10.410;2023-04-23T00:03:12;3.87;;;3.30;;
10509;SDS011;5303;53.266;10.410;2023-04-23T00:05:38;3.97;;;3.67;;
10509;SDS011;5303;53.266;10.410;2023-04-23T00:08:06;3.57;;;3.17;;
10509;SDS011;5303;53.266;10.410;2023-04-23T00:10:32;4.40;;;4.00;;
10509;SDS011;5303;53.266;10.410;2023-04-23T00:12:58;3.80;;;3.50;;
10509;SDS011;5303;53.266;10.410;2023-04-23T00:15:23;6.03;;;3.97;;
10509;SDS011;5303;53.266;10.410;2023-04-23T00:17:49;4.40;;;4.00;;
10509;SDS011;5303;53.266;10.410;2023-04-23T00:20:14;4.27;;;3.73;;
10509;SDS011;5303;53.266;10.410;2023-04-23T00:22:41;4.53;;;4.07;;
10509;SDS011;5303;53.266;10.410;2023-04-23T00:25:07;4.47;;;3.97;;
10509;SDS011;5303;53.266;10.410;2023-04-23T00:27:33;4.53;;;4.13;;
10509;SDS011;5303;53.266;10.410;2023-04-23T00:29:58;6.30;;;4.57;;
10509;SDS011;5303;53.266;10.410;2023-04-23T00:32:24;4.43;;;4.03;;
10509;SDS011;5303;53.266;10.410;2023-04-23T00:34:49;4.80;;;4.03;;
10509;SDS011;5303;53.266;10.410;2023-04-23T00:37:14;4.23;;;3.83;;
10509;SDS011;5303;53.266;10.410;2023-04-23T00:39:40;5.13;;;4.27;;
10509;SDS011;5303;53.266;10.410;2023-04-23T00:42:05;6.93;;;4.40;;
10509;SDS011;5303;53.266;10.410;2023-04-23T00:44:36;4.83;;;4.17;;
10509;SDS011;5303;53.266;10.410;2023-04-23T00:47:05;4.73;;;3.83;;
10509;SDS011;5303;53.266;10.410;2023-04-23T00:49:32;4.37;;;3.80;;
10509;SDS011;5303;53.266;10.410;2023-04-23T00:51:58;4.87;;;4.37;;
10509;SDS011;5303;53.266;10.410;2023-04-23T00:54:24;4.67;;;3.60;;
10509;SDS011;5303;53.266;10.410;2023-04-23T00:56:50;4.57;;;4.00;;
10509;SDS011;5303;53.266;10.410;2023-04-23T00:59:16;4.17;;;3.77;;
10509;SDS011;5303;53.266;10.410;2023-04-23T01:01:41;4.23;;;3.57;;
10509;SDS011;5303;53.266;10.410;2023-04-23T01:04:09;4.50;;;4.10;;
10509;SDS011;5303;53.266;10.410;2023-04-23T01:06:41;4.33;;;3.80;;
10509;SDS011;5303;53.266;10.410;2023-04-23T01:09:07;5.40;;;3.73;;
10509;SDS011;5303;53.266;10.410;2023-04-23T01:11:35;4.20;;;3.80;;
10509;SDS011;5303;53.266;10.410;2023-04-23T01:14:03;4.50;;;4.10;;
10509;SDS011;5303;53.266;10.410;2023-04-23T01:16:28;6.20;;;4.23;;
10509;SDS011;5303;53.266;10.410;2023-04-23T01:18:54;6.77;;;4.40;;
10509;SDS011;5303;53.266;10.410;2023-04-23T01:21:21;6.10;;;4.37;;
10509;SDS011;5303;53.266;10.410;2023-04-23T01:23:47;4.60;;;4.20;;
10509;SDS011;5303;53.266;10.410;2023-04-23T01:26:13;4.30;;;3.90;;
10509;SDS011;5303;53.266;10.410;2023-04-23T01:28:39;4.73;;;4.33;;
10509;SDS011;5303;53.266;10.410;2023-04-23T01:31:05;5.87;;;5.00;;
10509;SDS011;5303;53.266;10.410;2023-04-23T01:33:31;5.13;;;4.73;;
10509;SDS011;5303;53.266;10.410;2023-04-23T01:35:57;6.07;;;4.90;;
10509;SDS011;5303;53.266;10.410;2023-04-23T01:38:23;6.40;;;5.53;;
10509;SDS011;5303;53.266;10.410;2023-04-23T01:40:52;6.13;;;5.47;;
10509;SDS011;5303;53.266;10.410;2023-04-23T01:43:18;5.70;;;5.20;;
10509;SDS011;5303;53.266;10.410;2023-04-23T01:45:44;6.47;;;4.83;;
10509;SDS011;5303;53.266;10.410;2023-04-23T01:48:09;5.67;;;5.07;;
10509;SDS011;5303;53.266;10.410;2023-04-23T01:50:35;6.63;;;5.77;;
10509;SDS011;5303;53.266;10.410;2023-04-23T01:53:00;7.50;;;6.23;;
10509;SDS011;5303;53.266;10.410;2023-04-23T01:55:26;7.07;;;5.83;;
10509;SDS011;5303;53.266;10.410;2023-04-23T01:57:51;7.57;;;6.30;;
10509;SDS011;5303;53.266;10.410;2023-04-23T02:00:16;7.33;;;6.20;;
10509;SDS011;5303;53.266;10.410;2023-04-23T02:02:42;7.83;;;6.67;;
10509;SDS011;5303;53.266;10.410;2023-04-23T02:05:10;7.33;;;6.43;;
10509;SDS011;5303;53.266;10.410;2023-04-23T02:07:37;6.97;;;6.20;;
10509;SDS011;5303;53.266;10.410;2023-04-23T02:10:02;7.37;;;6.67;;
10509;SDS011;5303;53.266;10.410;2023-04-23T02:12:28;8.23;;;7.23;;
10509;SDS011;5303;53.266;10.410;2023-04-23T02:14:53;9.17;;;7.73;;
10509;SDS011;5303;53.266;10.410;2023-04-23T02:17:19;8.30;;;7.33;;
10509;SDS011;5303;53.266;10.410;2023-04-23T02:19:46;10.03;;;8.07;;
10509;SDS011;5303;53.266;10.410;2023-04-23T02:22:12;8.83;;;7.60;;
10509;SDS011;5303;53.266;10.410;2023-04-23T02:24:37;9.20;;;7.47;;
10509;SDS011;5303;53.266;10.410;2023-04-23T02:27:03;8.90;;;8.00;;
10509;SDS011;5303;53.266;10.410;2023-04-23T02:29:28;8.53;;;7.70;;
10509;SDS011;5303;53.266;10.410;2023-04-23T02:31:54;8.87;;;7.97;;
10509;SDS011;5303;53.266;10.410;2023-04-23T02:34:19;8.40;;;7.53;;
10509;SDS011;5303;53.266;10.410;2023-04-23T02:36:44;9.43;;;7.83;;
10509;SDS011;5303;53.266;10.410;2023-04-23T02:39:10;8.47;;;7.67;;
10509;SDS011;5303;53.266;10.410;2023-04-23T02:41:35;8.43;;;7.63;;
10509;SDS011;5303;53.266;10.410;2023-04-23T02:44:00;9.27;;;8.30;;
10509;SDS011;5303;53.266;10.410;2023-04-23T02:46:25;8.00;;;7.20;;
10509;SDS011;5303;53.266;10.410;2023-04-23T02:48:51;9.07;;;8.17;;
10509;SDS011;5303;53.266;10.410;2023-04-23T02:51:16;9.53;;;8.50;;
10509;SDS011;5303;53.266;10.410;2023-04-23T02:53:41;8.57;;;7.67;;
10509;SDS011;5303;53.266;10.410;2023-04-23T02:56:06;9.13;;;7.90;;
10509;SDS011;5303;53.266;10.410;2023-04-23T02:58:32;8.40;;;7.57;;
10509;SDS011;5303;53.266;10.410;2023-04-23T03:00:57;9.27;;;8.27;;
10509;SDS011;5303;53.266;10.410;2023-04-23T03:03:23;9.50;;;7.80;;
10509;SDS011;5303;53.266;10.410;2023-04-23T03:05:50;10.37;;;8.97;;
10509;SDS011;5303;53.266;10.410;2023-04-23T03:08:16;9.00;;;8.00;;
10509;SDS011;5303;53.266;10.410;2023-04-23T03:10:41;10.07;;;8.83;;
10509;SDS011;5303;53.266;10.410;2023-04-23T03:13:06;9.67;;;8.67;;
10509;SDS011;5303;53.266;10.410;2023-04-23T03:15:32;9.80;;;8.80;;
10509;SDS011;5303;53.266;10.410;2023-04-23T03:17:57;10.13;;;9.13;;
10509;SDS011;5303;53.266;10.410;2023-04-23T03:20:23;10.67;;;9.47;;
10509;SDS011;5303;53.266;10.410;2023-04-23T03:22:48;9.53;;;8.63;;
10509;SDS011;5303;53.266;10.410;2023-04-23T03:25:13;10.53;;;9.03;;
10509;SDS011;5303;53.266;10.410;2023-04-23T03:27:39;13.90;;;12.30;;
10509;SDS011;5303;53.266;10.410;2023-04-23T03:30:08;16.70;;;13.40;;
10509;SDS011;5303;53.266;10.410;2023-04-23T03:32:35;16.53;;;14.40;;
10509;SDS011;5303;53.266;10.410;2023-04-23T03:35:00;18.50;;;15.50;;
10509;SDS011;5303;53.266;10.410;2023-04-23T03:37:26;21.30;;;16.83;;
10509;SDS011;5303;53.266;10.410;2023-04-23T03:39:51;22.23;;;16.30;;
10509;SDS011;5303;53.266;10.410;2023-04-23T03:42:17;23.33;;;17.13;;
10509;SDS011;5303;53.266;10.410;2023-04-23T03:44:42;21.00;;;16.97;;
10509;SDS011;5303;53.266;10.410;2023-04-23T03:47:07;21.63;;;17.13;;
10509;SDS011;5303;53.266;10.410;2023-04-23T03:49:32;22.53;;;17.47;;
10509;SDS011;5303;53.266;10.410;2023-04-23T03:51:58;24.00;;;17.97;;
10509;SDS011;5303;53.266;10.410;2023-04-23T03:54:23;22.03;;;18.00;;
10509;SDS011;5303;53.266;10.410;2023-04-23T03:56:50;21.87;;;17.73;;
10509;SDS011;5303;53.266;10.410;2023-04-23T03:59:15;24.03;;;17.80;;
10509;SDS011;5303;53.266;10.410;2023-04-23T04:01:41;23.17;;;18.03;;
10509;SDS011;5303;53.266;10.410;2023-04-23T04:04:07;23.33;;;18.23;;
10509;SDS011;5303;53.266;10.410;2023-04-23T04:06:32;24.53;;;19.37;;
10509;SDS011;5303;53.266;10.410;2023-04-23T04:08:58;23.93;;;19.37;;
10509;SDS011;5303;53.266;10.410;2023-04-23T04:11:23;24.63;;;19.20;;
10509;SDS011;5303;53.266;10.410;2023-04-23T04:13:48;24.70;;;18.70;;
10509;SDS011;5303;53.266;10.410;2023-04-23T04:16:14;24.30;;;19.00;;
10509;SDS011;5303;53.266;10.410;2023-04-23T04:18:39;24.23;;;19.83;;
10509;SDS011;5303;53.266;10.410;2023-04-23T04:21:04;25.73;;;20.23;;
10509;SDS011;5303;53.266;10.410;2023-04-23T04:23:29;25.37;;;20.47;;
10509;SDS011;5303;53.266;10.410;2023-04-23T04:25:55;28.67;;;20.90;;
10509;SDS011;5303;53.266;10.410;2023-04-23T04:28:21;25.83;;;19.23;;
10509;SDS011;5303;53.266;10.410;2023-04-23T04:30:49;24.87;;;20.83;;
10509;SDS011;5303;53.266;10.410;2023-04-23T04:33:14;28.30;;;21.43;;
10509;SDS011;5303;53.266;10.410;2023-04-23T04:35:40;26.17;;;21.50;;
10509;SDS011;5303;53.266;10.410;2023-04-23T04:38:06;27.53;;;21.43;;
10509;SDS011;5303;53.266;10.410;2023-04-23T04:40:32;25.50;;;20.63;;
10509;SDS011;5303;53.266;10.410;2023-04-23T04:42:58;28.10;;;20.70;;
10509;SDS011;5303;53.266;10.410;2023-04-23T04:45:24;28.20;;;21.10;;
10509;SDS011;5303;53.266;10.410;2023-04-23T04:47:49;26.47;;;21.33;;
10509;SDS011;5303;53.266;10.410;2023-04-23T04:50:15;29.67;;;23.53;;
10509;SDS011;5303;53.266;10.410;2023-04-23T04:52:41;31.27;;;23.03;;
10509;SDS011;5303;53.266;10.410;2023-04-23T04:55:06;28.27;;;22.60;;
10509;SDS011;5303;53.266;10.410;2023-04-23T04:57:32;30.53;;;23.27;;
10509;SDS011;5303;53.266;10.410;2023-04-23T04:59:57;29.83;;;22.90;;
10509;SDS011;5303;53.266;10.410;2023-04-23T05:02:22;28.50;;;22.43;;
10509;SDS011;5303;53.266;10.410;2023-04-23T05:04:48;29.13;;;22.00;;
10509;SDS011;5303;53.266;10.410;2023-04-23T05:07:13;30.60;;;23.10;;
10509;SDS011;5303;53.266;10.410;2023-04-23T05:09:39;28.67;;;23.30;;
10509;SDS011;5303;53.266;10.410;2023-04-23T05:12:04;30.13;;;23.93;;
10509;SDS011;5303;53.266;10.410;2023-04-23T05:14:31;29.53;;;23.63;;
10509;SDS011;5303;53.266;10.410;2023-04-23T05:16:57;30.47;;;24.03;;
10509;SDS011;5303;53.266;10.410;2023-04-23T05:19:22;29.27;;;23.50;;
10509;SDS011;5303;53.266;10.410;2023-04-23T05:21:47;30.67;;;22.90;;
10509;SDS011;5303;53.266;10.410;2023-04-23T05:24:13;29.83;;;22.97;;
10509;SDS011;5303;53.266;10.410;2023-04-23T05:26:38;30.30;;;24.00;;
10509;SDS011;5303;53.266;10.410;2023-04-23T05:29:03;33.13;;;24.87;;
10509;SDS011;5303;53.266;10.410;2023-04-23T05:31:28;33.23;;;25.67;;
10509;SDS011;5303;53.266;10.410;2023-04-23T05:33:54;33.13;;;26.07;;
10509;SDS011;5303;53.266;10.410;2023-04-23T05:36:19;32.87;;;25.57;;
10509;SDS011;5303;53.266;10.410;2023-04-23T05:38:45;31.93;;;25.30;;
10509;SDS011;5303;53.266;10.410;2023-04-23T05:41:10;31.70;;;24.23;;
10509;SDS011;5303;53.266;10.410;2023-04-23T05:43:36;29.50;;;22.70;;
10509;SDS011;5303;53.266;10.410;2023-04-23T05:46:01;28.77;;;22.20;;
10509;SDS011;5303;53.266;10.410;2023-04-23T05:48:28;28.43;;;21.97;;
10509;SDS011;5303;53.266;10.410;2023-04-23T05:50:54;25.70;;;20.63;;
10509;SDS011;5303;53.266;10.410;2023-04-23T05:53:19;26.10;;;19.70;;
10509;SDS011;5303;53.266;10.410;2023-04-23T05:55:44;24.40;;;19.30;;
10509;SDS011;5303;53.266;10.410;2023-04-23T05:58:10;24.10;;;18.47;;
10509;SDS011;5303;53.266;10.410;2023-04-23T06:00:35;20.80;;;15.60;;
10509;SDS011;5303;53.266;10.410;2023-04-23T06:03:01;21.30;;;16.07;;
10509;SDS011;5303;53.266;10.410;2023-04-23T06:05:26;20.87;;;15.63;;
10509;SDS011;5303;53.266;10.410;2023-04-23T06:07:52;20.43;;;15.50;;
10509;SDS011;5303;53.266;10.410;2023-04-23T06:10:17;20.03;;;14.33;;
10509;SDS011;5303;53.266;10.410;2023-04-23T06:12:42;21.70;;;16.20;;
10509;SDS011;5303;53.266;10.410;2023-04-23T06:15:08;19.30;;;15.57;;
10509;SDS011;5303;53.266;10.410;2023-04-23T06:17:36;19.93;;;15.83;;
10509;SDS011;5303;53.266;10.410;2023-04-23T06:20:02;20.33;;;16.30;;
10509;SDS011;5303;53.266;10.410;2023-04-23T06:22:30;20.10;;;15.67;;
10509;SDS011;5303;53.266;10.410;2023-04-23T06:24:56;20.93;;;16.03;;
10509;SDS011;5303;53.266;10.410;2023-04-23T06:27:21;19.80;;;14.67;;
10509;SDS011;5303;53.266;10.410;2023-04-23T06:29:46;18.27;;;14.07;;
10509;SDS011;5303;53.266;10.410;2023-04-23T06:32:12;17.80;;;14.60;;
10509;SDS011;5303;53.266;10.410;2023-04-23T06:34:37;17.23;;;13.97;;
10509;SDS011;5303;53.266;10.410;2023-04-23T06:37:02;14.60;;;11.87;;
10509;SDS011;5303;53.266;10.410;2023-04-23T06:39:27;12.77;;;9.97;;
10509;SDS011;5303;53.266;10.410;2023-04-23T06:41:53;10.83;;;9.53;;
10509;SDS011;5303;53.266;10.410;2023-04-23T06:44:18;16.70;;;10.53;;
10509;SDS011;5303;53.266;10.410;2023-04-23T06:46:43;13.23;;;10.30;;
10509;SDS011;5303;53.266;10.410;2023-04-23T06:49:09;12.67;;;10.00;;
10509;SDS011;5303;53.266;10.410;2023-04-23T06:51:34;14.27;;;10.20;;
10509;SDS011;5303;53.266;10.410;2023-04-23T06:53:59;14.10;;;10.63;;
10509;SDS011;5303;53.266;10.410;2023-04-23T06:56:24;13.57;;;10.70;;
10509;SDS011;5303;53.266;10.410;2023-04-23T06:58:51;14.50;;;10.80;;
10509;SDS011;5303;53.266;10.410;2023-04-23T07:01:16;13.03;;;10.23;;
10509;SDS011;5303;53.266;10.410;2023-04-23T07:03:41;11.47;;;8.97;;
10509;SDS011;5303;53.266;10.410;2023-04-23T07:06:08;8.43;;;7.50;;
10509;SDS011;5303;53.266;10.410;2023-04-23T07:08:34;8.97;;;8.00;;
10509;SDS011;5303;53.266;10.410;2023-04-23T07:11:00;9.87;;;7.83;;
10509;SDS011;5303;53.266;10.410;2023-04-23T07:13:25;10.43;;;7.30;;
10509;SDS011;5303;53.266;10.410;2023-04-23T07:15:51;9.33;;;7.93;;
10509;SDS011;5303;53.266;10.410;2023-04-23T07:18:16;10.57;;;7.30;;
10509;SDS011;5303;53.266;10.410;2023-04-23T07:20:41;8.43;;;6.70;;
10509;SDS011;5303;53.266;10.410;2023-04-23T07:23:07;12.77;;;7.43;;
10509;SDS011;5303;53.266;10.410;2023-04-23T07:25:32;7.93;;;7.13;;
10509;SDS011;5303;53.266;10.410;2023-04-23T07:27:57;9.20;;;6.70;;
10509;SDS011;5303;53.266;10.410;2023-04-23T07:30:23;8.93;;;7.33;;
10509;SDS011;5303;53.266;10.410;2023-04-23T07:32:50;10.57;;;7.47;;
10509;SDS011;5303;53.266;10.410;2023-04-23T07:35:16;9.43;;;7.77;;
10509;SDS011;5303;53.266;10.410;2023-04-23T07:37:42;8.70;;;6.93;;
10509;SDS011;5303;53.266;10.410;2023-04-23T07:40:07;11.60;;;7.40;;
10509;SDS011;5303;53.266;10.410;2023-04-23T07:42:33;9.73;;;7.20;;
10509;SDS011;5303;53.266;10.410;2023-04-23T07:44:58;9.90;;;8.47;;
10509;SDS011;5303;53.266;10.410;2023-04-23T07:47:23;9.87;;;7.27;;
10509;SDS011;5303;53.266;10.410;2023-04-23T07:49:49;10.33;;;7.17;;
10509;SDS011;5303;53.266;10.410;2023-04-23T07:52:15;9.53;;;7.63;;
10509;SDS011;5303;53.266;10.410;2023-04-23T07:54:41;10.50;;;7.73;;
10509;SDS011;5303;53.266;10.410;2023-04-23T07:57:06;10.50;;;7.80;;
10509;SDS011;5303;53.266;10.410;2023-04-23T07:59:32;11.27;;;7.23;;
10509;SDS011;5303;53.266;10.410;2023-04-23T08:01:57;10.17;;;7.27;;
10509;SDS011;5303;53.266;10.410;2023-04-23T08:04:22;9.33;;;6.90;;
10509;SDS011;5303;53.266;10.410;2023-04-23T08:06:47;8.77;;;6.83;;
10509;SDS011;5303;53.266;10.410;2023-04-23T08:09:13;8.10;;;6.90;;
10509;SDS011;5303;53.266;10.410;2023-04-23T08:11:39;9.33;;;6.93;;
10509;SDS011;5303;53.266;10.410;2023-04-23T08:14:05;8.43;;;6.53;;
10509;SDS011;5303;53.266;10.410;2023-04-23T08:16:30;8.37;;;6.47;;
10509;SDS011;5303;53.266;10.410;2023-04-23T08:18:55;8.33;;;7.13;;
10509;SDS011;5303;53.266;10.410;2023-04-23T08:21:22;10.77;;;7.27;;
10509;SDS011;5303;53.266;10.410;2023-04-23T08:23:48;9.10;;;7.57;;
10509;SDS011;5303;53.266;10.410;2023-04-23T08:26:13;12.20;;;9.07;;
10509;SDS011;5303;53.266;10.410;2023-04-23T08:28:39;11.97;;;9.80;;
10509;SDS011;5303;53.266;10.410;2023-04-23T08:31:04;11.70;;;9.60;;
10509;SDS011;5303;53.266;10.410;2023-04-23T08:33:30;14.23;;;10.00;;
10509;SDS011;5303;53.266;10.410;2023-04-23T08:35:56;11.80;;;9.93;;
10509;SDS011;5303;53.266;10.410;2023-04-23T08:38:21;12.00;;;10.17;;
10509;SDS011;5303;53.266;10.410;2023-04-23T08:40:47;12.13;;;9.13;;
10509;SDS011;5303;53.266;10.410;2023-04-23T08:43:19;15.20;;;10.93;;
10509;SDS011;5303;53.266;10.410;2023-04-23T08:45:45;12.27;;;9.53;;
10509;SDS011;5303;53.266;10.410;2023-04-23T08:48:11;11.77;;;9.53;;
10509;SDS011;5303;53.266;10.410;2023-04-23T08:50:38;11.17;;;9.30;;
10509;SDS011;5303;53.266;10.410;2023-04-23T08:53:06;11.00;;;9.33;;
10509;SDS011;5303;53.266;10.410;2023-04-23T08:55:32;12.83;;;10.07;;
10509;SDS011;5303;53.266;10.410;2023-04-23T08:57:59;11.27;;;9.60;;
10509;SDS011;5303;53.266;10.410;2023-04-23T09:00:25;11.17;;;9.57;;
10509;SDS011;5303;53.266;10.410;2023-04-23T09:02:51;12.53;;;10.30;;
10509;SDS011;5303;53.266;10.410;2023-04-23T09:05:16;13.00;;;9.70;;
10509;SDS011;5303;53.266;10.410;2023-04-23T09:07:41;11.40;;;9.60;;
10509;SDS011;5303;53.266;10.410;2023-04-23T09:10:08;10.73;;;8.30;;
10509;SDS011;5303;53.266;10.410;2023-04-23T09:12:35;12.33;;;9.43;;
10509;SDS011;5303;53.266;10.410;2023-04-23T09:15:05;10.80;;;9.67;;
10509;SDS011;5303;53.266;10.410;2023-04-23T09:17:35;13.00;;;10.30;;
10509;SDS011;5303;53.266;10.410;2023-04-23T09:20:03;11.60;;;8.93;;
10509;SDS011;5303;53.266;10.410;2023-04-23T09:22:42;11.03;;;9.17;;
10509;SDS011;5303;53.266;10.410;2023-04-23T09:25:10;9.30;;;8.23;;
10509;SDS011;5303;53.266;10.410;2023-04-23T09:27:37;12.07;;;9.13;;
10509;SDS011;5303;53.266;10.410;2023-04-23T09:30:03;15.97;;;10.00;;
10509;SDS011;5303;53.266;10.410;2023-04-23T09:32:32;11.73;;;9.00;;
10509;SDS011;5303;53.266;10.410;2023-04-23T09:35:00;11.83;;;8.93;;
10509;SDS011;5303;53.266;10.410;2023-04-23T09:37:27;11.80;;;9.53;;
10509;SDS011;5303;53.266;10.410;2023-04-23T09:39:53;9.57;;;8.67;;
10509;SDS011;5303;53.266;10.410;2023-04-23T09:42:22;11.37;;;8.87;;
10509;SDS011;5303;53.266;10.410;2023-04-23T09:47:55;7.80;;;6.43;;
10509;SDS011;5303;53.266;10.410;2023-04-23T09:50:35;8.83;;;7.77;;
10509;SDS011;5303;53.266;10.410;2023-04-23T09:53:05;10.70;;;8.20;;
10509;SDS011;5303;53.266;10.410;2023-04-23T09:55:33;10.17;;;7.30;;
10509;SDS011;5303;53.266;10.410;2023-04-23T09:58:02;8.43;;;7.33;;
10509;SDS011;5303;53.266;10.410;2023-04-23T10:00:33;9.00;;;7.77;;
10509;SDS011;5303;53.266;10.410;2023-04-23T10:03:00;8.13;;;6.87;;
10509;SDS011;5303;53.266;10.410;2023-04-23T10:05:25;9.33;;;7.07;;
10509;SDS011;5303;53.266;10.410;2023-04-23T10:07:51;10.90;;;8.27;;
10509;SDS011;5303;53.266;10.410;2023-04-23T10:10:17;8.67;;;7.77;;
10509;SDS011;5303;53.266;10.410;2023-04-23T10:12:43;9.70;;;8.70;;
10509;SDS011;5303;53.266;10.410;2023-04-23T10:15:10;9.47;;;7.90;;
10509;SDS011;5303;53.266;10.410;2023-04-23T10:17:37;11.50;;;9.20;;
10509;SDS011;5303;53.266;10.410;2023-04-23T10:20:05;10.30;;;9.20;;
10509;SDS011;5303;53.266;10.410;2023-04-23T10:22:32;11.57;;;9.40;;
10509;SDS011;5303;53.266;10.410;2023-04-23T10:25:02;10.20;;;8.90;;
10509;SDS011;5303;53.266;10.410;2023-04-23T10:27:30;10.57;;;9.47;;
10509;SDS011;5303;53.266;10.410;2023-04-23T10:29:59;10.30;;;8.97;;
10509;SDS011;5303;53.266;10.410;2023-04-23T10:32:25;10.37;;;9.27;;
10509;SDS011;5303;53.266;10.410;2023-04-23T10:34:52;9.93;;;8.93;;
10509;SDS011;5303;53.266;10.410;2023-04-23T10:37:20;10.10;;;9.07;;
10509;SDS011;5303;53.266;10.410;2023-04-23T10:39:46;11.53;;;9.20;;
10509;SDS011;5303;53.266;10.410;2023-04-23T10:42:14;9.80;;;8.80;;
10509;SDS011;5303;53.266;10.410;2023-04-23T10:44:41;9.87;;;8.70;;
10509;SDS011;5303;53.266;10.410;2023-04-23T10:47:11;10.03;;;8.30;;
10509;SDS011;5303;53.266;10.410;2023-04-23T10:49:38;11.63;;;9.00;;
10509;SDS011;5303;53.266;10.410;2023-04-23T10:52:07;9.80;;;8.80;;
10509;SDS011;5303;53.266;10.410;2023-04-23T10:54:46;10.80;;;9.67;;
10509;SDS011;5303;53.266;10.410;2023-04-23T10:57:21;12.73;;;10.00;;
10509;SDS011;5303;53.266;10.410;2023-04-23T10:59:50;9.90;;;8.50;;
10509;SDS011;5303;53.266;10.410;2023-04-23T11:02:17;10.00;;;8.27;;
10509;SDS011;5303;53.266;10.410;2023-04-23T11:04:51;10.07;;;8.60;;
10509;SDS011;5303;53.266;10.410;2023-04-23T11:07:18;12.07;;;8.50;;
10509;SDS011;5303;53.266;10.410;2023-04-23T11:09:47;9.30;;;8.17;;
10509;SDS011;5303;53.266;10.410;2023-04-23T11:14:47;8.27;;;5.20;;
10509;SDS011;5303;53.266;10.410;2023-04-23T11:17:14;6.10;;;5.40;;
10509;SDS011;5303;53.266;10.410;2023-04-23T11:19:41;7.17;;;4.77;;
10509;SDS011;5303;53.266;10.410;2023-04-23T11:22:35;6.03;;;5.33;;
10509;SDS011;5303;53.266;10.410;2023-04-23T11:25:02;6.87;;;5.00;;
10509;SDS011;5303;53.266;10.410;2023-04-23T11:27:29;5.90;;;5.30;;
10509;SDS011;5303;53.266;10.410;2023-04-23T11:29:55;6.13;;;5.03;;
10509;SDS011;5303;53.266;10.410;2023-04-23T11:32:21;6.90;;;5.80;;
10509;SDS011;5303;53.266;10.410;2023-04-23T11:34:47;6.27;;;5.03;;
10509;SDS011;5303;53.266;10.410;2023-04-23T11:37:14;7.13;;;4.70;;
10509;SDS011;5303;53.266;10.410;2023-04-23T11:39:43;5.77;;;5.17;;
10509;SDS011;5303;53.266;10.410;2023-04-23T11:42:11;6.63;;;5.50;;
10509;SDS011;5303;53.266;10.410;2023-04-23T11:44:41;5.20;;;4.57;;
10509;SDS011;5303;53.266;10.410;2023-04-23T11:47:08;6.20;;;5.20;;
10509;SDS011;5303;53.266;10.410;2023-04-23T11:49:38;6.47;;;4.80;;
10509;SDS011;5303;53.266;10.410;2023-04-23T11:52:06;6.90;;;6.03;;
10509;SDS011;5303;53.266;10.410;2023-04-23T11:54:32;5.93;;;4.90;;
10509;SDS011;5303;53.266;10.410;2023-04-23T11:56:58;5.63;;;4.93;;
10509;SDS011;5303;53.266;10.410;2023-04-23T11:59:24;6.40;;;4.40;;
10509;SDS011;5303;53.266;10.410;2023-04-23T12:01:52;5.70;;;4.40;;
10509;SDS011;5303;53.266;10.410;2023-04-23T12:04:19;6.60;;;4.80;;
10509;SDS011;5303;53.266;10.410;2023-04-23T12:06:46;4.80;;;4.30;;
10509;SDS011;5303;53.266;10.410;2023-04-23T12:09:12;5.53;;;3.90;;
10509;SDS011;5303;53.266;10.410;2023-04-23T12:11:39;5.73;;;4.47;;
10509;SDS011;5303;53.266;10.410;2023-04-23T12:14:06;5.17;;;4.67;;
10509;SDS011;5303;53.266;10.410;2023-04-23T12:16:36;6.20;;;4.70;;
10509;SDS011;5303;53.266;10.410;2023-04-23T12:21:52;5.27;;;4.30;;
10509;SDS011;5303;53.266;10.410;2023-04-23T12:24:24;5.37;;;4.50;;
10509;SDS011;5303;53.266;10.410;2023-04-23T12:27:12;4.83;;;4.23;;
10509;SDS011;5303;53.266;10.410;2023-04-23T12:29:39;6.57;;;4.37;;
10509;SDS011;5303;53.266;10.410;2023-04-23T12:32:05;4.47;;;3.80;;
10509;SDS011;5303;53.266;10.410;2023-04-23T12:34:35;6.13;;;3.43;;
10509;SDS011;5303;53.266;10.410;2023-04-23T12:37:04;5.50;;;4.47;;
10509;SDS011;5303;53.266;10.410;2023-04-23T12:39:31;4.97;;;3.80;;
10509;SDS011;5303;53.266;10.410;2023-04-23T12:42:01;3.63;;;3.00;;
10509;SDS011;5303;53.266;10.410;2023-04-23T12:44:35;3.30;;;3.00;;
10509;SDS011;5303;53.266;10.410;2023-04-23T12:47:02;4.53;;;3.90;;
10509;SDS011;5303;53.266;10.410;2023-04-23T12:49:29;4.17;;;3.23;;
10509;SDS011;5303;53.266;10.410;2023-04-23T12:51:56;4.27;;;3.40;;
10509;SDS011;5303;53.266;10.410;2023-04-23T12:54:25;4.20;;;3.13;;
10509;SDS011;5303;53.266;10.410;2023-04-23T12:56:55;4.53;;;3.00;;
10509;SDS011;5303;53.266;10.410;2023-04-23T12:59:20;3.33;;;3.03;;
10509;SDS011;5303;53.266;10.410;2023-04-23T13:01:46;4.17;;;3.23;;
10509;SDS011;5303;53.266;10.410;2023-04-23T13:04:11;3.67;;;2.93;;
10509;SDS011;5303;53.266;10.410;2023-04-23T13:06:37;3.83;;;2.97;;
10509;SDS011;5303;53.266;10.410;2023-04-23T13:09:02;3.13;;;2.83;;
10509;SDS011;5303;53.266;10.410;2023-04-23T13:11:29;4.43;;;2.70;;
10509;SDS011;5303;53.266;10.410;2023-04-23T13:13:57;4.63;;;2.80;;
10509;SDS011;5303;53.266;10.410;2023-04-23T13:16:22;3.17;;;2.87;;
10509;SDS011;5303;53.266;10.410;2023-04-23T13:18:48;4.90;;;3.73;;
10509;SDS011;5303;53.266;10.410;2023-04-23T13:21:15;4.03;;;3.20;;
10509;SDS011;5303;53.266;10.410;2023-04-23T13:23:41;4.87;;;2.40;;
10509;SDS011;5303;53.266;10.410;2023-04-23T13:26:06;2.93;;;2.60;;
10509;SDS011;5303;53.266;10.410;2023-04-23T13:28:32;3.43;;;3.13;;
10509;SDS011;5303;53.266;10.410;2023-04-23T13:30:57;3.73;;;3.10;;
10509;SDS011;5303;53.266;10.410;2023-04-23T13:33:23;2.80;;;2.50;;
10509;SDS011;5303;53.266;10.410;2023-04-23T13:35:48;4.50;;;2.93;;
10509;SDS011;5303;53.266;10.410;2023-04-23T13:38:13;4.20;;;3.10;;
10509;SDS011;5303;53.266;10.410;2023-04-23T13:40:38;3.43;;;2.70;;
10509;SDS011;5303;53.266;10.410;2023-04-23T13:43:04;4.30;;;2.80;;
10509;SDS011;5303;53.266;10.410;2023-04-23T13:45:30;4.00;;;2.70;;
10509;SDS011;5303;53.266;10.410;2023-04-23T13:47:56;3.20;;;2.90;;
10509;SDS011;5303;53.266;10.410;2023-04-23T13:50:21;4.53;;;2.93;;
10509;SDS011;5303;53.266;10.410;2023-04-23T13:52:46;3.67;;;3.07;;
10509;SDS011;5303;53.266;10.410;2023-04-23T13:55:12;2.90;;;2.70;;
10509;SDS011;5303;53.266;10.410;2023-04-23T13:57:37;4.23;;;2.93;;
10509;SDS011;5303;53.266;10.410;2023-04-23T14:00:03;2.50;;;2.30;;
10509;SDS011;5303;53.266;10.410;2023-04-23T14:02:29;2.87;;;2.67;;
10509;SDS011;5303;53.266;10.410;2023-04-23T14:04:54;3.13;;;2.83;;
10509;SDS011;5303;53.266;10.410;2023-04-23T14:07:20;3.60;;;2.77;;
10509;SDS011;5303;53.266;10.410;2023-04-23T14:09:45;2.70;;;2.50;;
10509;SDS011;5303;53.266;10.410;2023-04-23T14:12:11;3.13;;;2.63;;
10509;SDS011;5303;53.266;10.410;2023-04-23T14:14:36;3.07;;;2.70;;
10509;SDS011;5303;53.266;10.410;2023-04-23T14:17:02;4.27;;;2.97;;
10509;SDS011;5303;53.266;10.410;2023-04-23T14:19:27;4.30;;;2.63;;
10509;SDS011;5303;53.266;10.410;2023-04-23T14:21:54;3.50;;;2.80;;
10509;SDS011;5303;53.266;10.410;2023-04-23T14:24:22;2.73;;;2.47;;
10509;SDS011;5303;53.266;10.410;2023-04-23T14:26:52;3.10;;;2.50;;
10509;SDS011;5303;53.266;10.410;2023-04-23T14:31:59;3.70;;;2.77;;
10509;SDS011;5303;53.266;10.410;2023-04-23T14:34:24;2.70;;;2.47;;
10509;SDS011;5303;53.266;10.410;2023-04-23T14:36:50;3.03;;;2.80;;
10509;SDS011;5303;53.266;10.410;2023-04-23T14:39:16;4.27;;;2.90;;
10509;SDS011;5303;53.266;10.410;2023-04-23T14:41:42;3.53;;;2.90;;
10509;SDS011;5303;53.266;10.410;2023-04-23T14:44:07;3.30;;;2.80;;